sensor_id;sensor_type;location;lat;lon;timestamp;pressure;altitude;pressure_sealevel;temperature;humidity
19624;BME280;9959;49.798;9.928;2023-08-30T00:01:13;98963.91;;;13.71;100.00
19624;BME280;9959;49.798;9.928;2023-08-30T00:03:40;98960.91;;;13.51;100.00
19624;BME280;9959;49.798;9.928;2023-08-30T00:06:07;98957.22;;;13.57;100.00
19624;BME280;9959;49.798;9.928;2023-08-30T00:08:34;98957.41;;;13.34;100.00
19624;BME280;9959;49.798;9.928;2023-08-30T00:11:01;98959.13;;;13.23;100.00
19624;BME280;9959;49.798;9.928;2023-08-30T00:13:32;98957.22;;;13.57;100.00
19624;BME280;9959;49.798;9.928;2023-08-30T00:16:00;98951.66;;;13.47;100.00
19624;BME280;9959;49.798;9.928;2023-08-30T00:18:29;98955.84;;;13.38;100.00
19624;BME280;9959;49.798;9.928;2023-08-30T00:20:56;98952.38;;;13.42;100.00
19624;BME280;9959;49.798;9.928;2023-08-30T00:23:24;98945.84;;;13.38;100.00
19624;BME280;9959;49.798;9.928;2023-08-30T00:25:51;98947.66;;;13.33;100.00
19624;BME280;9959;49.798;9.928;2023-08-30T00:28:18;98939.78;;;13.31;100.00
19624;BME280;9959;49.798;9.928;2023-08-30T00:30:44;98950.91;;;13.51;100.00
19624;BME280;9959;49.798;9.928;2023-08-30T00:33:12;98956.44;;;13.40;100.00
19624;BME280;9959;49.798;9.928;2023-08-30T00:35:39;98957.31;;;13.62;100.00
19624;BME280;9959;49.798;9.928;2023-08-30T00:38:06;98953.63;;;13.35;100.00
19624;BME280;9959;49.798;9.928;2023-08-30T00:40:40;98947.31;;;13.46;100.00
19624;BME280;9959;49.798;9.928;2023-08-30T00:43:07;98946.81;;;13.49;100.00
19624;BME280;9959;49.798;9.928;2023-08-30T00:45:37;98940.84;;;13.30;100.00
19624;BME280;9959;49.798;9.928;2023-08-30T00:48:06;98945.34;;;13.41;100.00
19624;BME280;9959;49.798;9.928;2023-08-30T00:50:34;98949.94;;;13.41;100.00
19624;BME280;9959;49.798;9.928;2023-08-30T00:53:03;98946.97;;;13.59;100.00
19624;BME280;9959;49.798;9.928;2023-08-30T00:55:34;98944.38;;;13.31;100.00
19624;BME280;9959;49.798;9.928;2023-08-30T00:58:01;98944.47;;;13.36;100.00
19624;BME280;9959;49.798;9.928;2023-08-30T01:00:33;98946.47;;;13.45;100.00
19624;BME280;9959;49.798;9.928;2023-08-30T01:03:00;98949.09;;;13.40;100.00
19624;BME280;9959;49.798;9.928;2023-08-30T01:05:28;98947.56;;;13.28;100.00
19624;BME280;9959;49.798;9.928;2023-08-30T01:07:55;98945.25;;;13.19;100.00
19624;BME280;9959;49.798;9.928;2023-08-30T01:10:38;98948.16;;;13.30;100.00
19624;BME280;9959;49.798;9.928;2023-08-30T01:13:09;98946.50;;;13.29;100.00
19624;BME280;9959;49.798;9.928;2023-08-30T01:15:38;98952.22;;;13.15;100.00
19624;BME280;9959;49.798;9.928;2023-08-30T01:18:07;98943.19;;;13.10;100.00
19624;BME280;9959;49.798;9.928;2023-08-30T01:20:38;98939.88;;;12.91;100.00
19624;BME280;9959;49.798;9.928;2023-08-30T01:26:20;98945.63;;;12.78;100.00
19624;BME280;9959;49.798;9.928;2023-08-30T01:28:51;98935.63;;;12.78;100.00
19624;BME280;9959;49.798;9.928;2023-08-30T01:31:19;98936.44;;;12.79;100.00
19624;BME280;9959;49.798;9.928;2023-08-30T01:33:46;98942.78;;;12.84;100.00
19624;BME280;9959;49.798;9.928;2023-08-30T01:36:15;98946.09;;;12.75;100.00
19624;BME280;9959;49.798;9.928;2023-08-30T01:38:43;98954.59;;;12.67;100.00
19624;BME280;9959;49.798;9.928;2023-08-30T01:41:11;98948.03;;;12.63;100.00
19624;BME280;9959;49.798;9.928;2023-08-30T01:43:38;98950.16;;;12.61;100.00
19624;BME280;9959;49.798;9.928;2023-08-30T01:46:06;98950.66;;;12.58;100.00
19624;BME280;9959;49.798;9.928;2023-08-30T01:48:35;98945.97;;;12.81;100.00
19624;BME280;9959;49.798;9.928;2023-08-30T01:51:03;98945.91;;;12.65;100.00
19624;BME280;9959;49.798;9.928;2023-08-30T01:53:30;98948.44;;;12.54;100.00
19624;BME280;9959;49.798;9.928;2023-08-30T01:55:58;98949.28;;;12.72;100.00
19624;BME280;9959;49.798;9.928;2023-08-30T01:58:25;98960.78;;;12.50;100.00
19624;BME280;9959;49.798;9.928;2023-08-30T02:00:53;98953.25;;;12.81;100.00
19624;BME280;9959;49.798;9.928;2023-08-30T02:03:19;98951.63;;;12.51;100.00
19624;BME280;9959;49.798;9.928;2023-08-30T02:08:39;98947.88;;;12.69;100.00
19624;BME280;9959;49.798;9.928;2023-08-30T02:11:12;98949.28;;;12.72;100.00
19624;BME280;9959;49.798;9.928;2023-08-30T02:13:41;98952.53;;;13.02;100.00
19624;BME280;9959;49.798;9.928;2023-08-30T02:16:09;98946.28;;;12.85;100.00
19624;BME280;9959;49.798;9.928;2023-08-30T02:18:37;98949.28;;;12.72;100.00
19624;BME280;9959;49.798;9.928;2023-08-30T02:21:04;98948.56;;;12.93;100.00
19624;BME280;9959;49.798;9.928;2023-08-30T02:23:32;98952.75;;;12.84;100.00
19624;BME280;9959;49.798;9.928;2023-08-30T02:25:59;98946.44;;;12.78;100.00
19624;BME280;9959;49.798;9.928;2023-08-30T02:28:26;98951.38;;;12.81;100.00
19624;BME280;9959;49.798;9.928;2023-08-30T02:30:53;98946.53;;;12.83;100.00
19624;BME280;9959;49.798;9.928;2023-08-30T02:33:20;98946.59;;;12.72;100.00
19624;BME280;9959;49.798;9.928;2023-08-30T02:35:48;98950.69;;;12.91;100.00
19624;BME280;9959;49.798;9.928;2023-08-30T02:38:15;98955.13;;;12.97;100.00
19624;BME280;9959;49.798;9.928;2023-08-30T02:40:42;98949.13;;;13.24;100.00
19624;BME280;9959;49.798;9.928;2023-08-30T02:43:09;98954.44;;;13.18;100.00
19624;BME280;9959;49.798;9.928;2023-08-30T02:45:37;98953.88;;;13.16;100.00
19624;BME280;9959;49.798;9.928;2023-08-30T02:48:04;98955.97;;;12.98;100.00
19624;BME280;9959;49.798;9.928;2023-08-30T02:50:31;98959.50;;;12.98;100.00
19624;BME280;9959;49.798;9.928;2023-08-30T02:52:58;98958.28;;;13.06;100.00
19624;BME280;9959;49.798;9.928;2023-08-30T02:55:25;98949.34;;;13.05;100.00
19624;BME280;9959;49.798;9.928;2023-08-30T02:58:06;98949.41;;;12.94;100.00
19624;BME280;9959;49.798;9.928;2023-08-30T03:00:47;98941.28;;;12.77;100.00
19624;BME280;9959;49.798;9.928;2023-08-30T03:03:27;98936.94;;;12.76;100.00
19624;BME280;9959;49.798;9.928;2023-08-30T03:06:01;98940.22;;;12.78;100.00
19624;BME280;9959;49.798;9.928;2023-08-30T03:08:43;98934.63;;;13.30;100.00
19624;BME280;9959;49.798;9.928;2023-08-30T03:11:11;98941.53;;;12.92;100.00
19624;BME280;9959;49.798;9.928;2023-08-30T03:13:38;98945.06;;;12.93;100.00
19624;BME280;9959;49.798;9.928;2023-08-30T03:16:15;98942.59;;;12.91;100.00
19624;BME280;9959;49.798;9.928;2023-08-30T03:18:43;98950.84;;;12.68;100.00
19624;BME280;9959;49.798;9.928;2023-08-30T03:21:10;98948.19;;;13.01;100.00
19624;BME280;9959;49.798;9.928;2023-08-30T03:23:38;98940.13;;;12.73;100.00
19624;BME280;9959;49.798;9.928;2023-08-30T03:26:09;98942.97;;;12.66;100.00
19624;BME280;9959;49.798;9.928;2023-08-30T03:28:37;98946.38;;;12.62;100.00
19624;BME280;9959;49.798;9.928;2023-08-30T03:31:19;98941.94;;;12.84;100.00
19624;BME280;9959;49.798;9.928;2023-08-30T03:33:49;98944.13;;;12.87;100.00
19624;BME280;9959;49.798;9.928;2023-08-30T03:36:17;98940.81;;;12.97;100.00
19624;BME280;9959;49.798;9.928;2023-08-30T03:38:45;98949.97;;;12.79;100.00
19624;BME280;9959;49.798;9.928;2023-08-30T03:41:12;98947.94;;;13.03;100.00
19624;BME280;9959;49.798;9.928;2023-08-30T03:43:40;98952.22;;;13.15;100.00
19624;BME280;9959;49.798;9.928;2023-08-30T03:46:07;98956.53;;;13.00;100.00
19624;BME280;9959;49.798;9.928;2023-08-30T03:48:36;98945.97;;;12.98;100.00
19624;BME280;9959;49.798;9.928;2023-08-30T03:51:03;98942.25;;;13.33;100.00
19624;BME280;9959;49.798;9.928;2023-08-30T03:53:30;98935.31;;;12.92;100.00
19624;BME280;9959;49.798;9.928;2023-08-30T03:55:57;98935.25;;;13.03;100.00
19624;BME280;9959;49.798;9.928;2023-08-30T03:58:24;98943.97;;;12.77;100.00
19624;BME280;9959;49.798;9.928;2023-08-30T04:00:51;98944.56;;;12.50;100.00
19624;BME280;9959;49.798;9.928;2023-08-30T04:03:18;98938.69;;;12.53;100.00
19624;BME280;9959;49.798;9.928;2023-08-30T04:05:45;98941.81;;;12.62;100.00
19624;BME280;9959;49.798;9.928;2023-08-30T04:08:12;98941.97;;;12.56;100.00
19624;BME280;9959;49.798;9.928;2023-08-30T04:10:41;98943.41;;;12.75;100.00
19624;BME280;9959;49.798;9.928;2023-08-30T04:13:08;98935.28;;;12.75;100.00
19624;BME280;9959;49.798;9.928;2023-08-30T04:15:37;98941.97;;;12.56;100.00
19624;BME280;9959;49.798;9.928;2023-08-30T04:18:06;98930.84;;;13.31;100.00
19624;BME280;9959;49.798;9.928;2023-08-30T04:20:34;98932.69;;;13.13;100.00
19624;BME280;9959;49.798;9.928;2023-08-30T04:23:01;98931.69;;;12.86;100.00
19624;BME280;9959;49.798;9.928;2023-08-30T04:25:29;98925.06;;;12.77;100.00
19624;BME280;9959;49.798;9.928;2023-08-30T04:27:56;98918.75;;;12.71;100.00
19624;BME280;9959;49.798;9.928;2023-08-30T04:30:23;98925.31;;;12.92;100.00
19624;BME280;9959;49.798;9.928;2023-08-30T04:32:50;98920.72;;;12.76;100.00
19624;BME280;9959;49.798;9.928;2023-08-30T04:35:18;98923.66;;;12.91;100.00
19624;BME280;9959;49.798;9.928;2023-08-30T04:37:45;98926.13;;;12.76;100.00
19624;BME280;9959;49.798;9.928;2023-08-30T04:40:12;98923.81;;;12.68;100.00
19624;BME280;9959;49.798;9.928;2023-08-30T04:42:39;98931.03;;;12.79;100.00
19624;BME280;9959;49.798;9.928;2023-08-30T04:45:07;98923.31;;;12.71;100.00
19624;BME280;9959;49.798;9.928;2023-08-30T04:47:35;98923.91;;;12.73;100.00
19624;BME280;9959;49.798;9.928;2023-08-30T04:50:02;98925.16;;;12.82;100.00
19624;BME280;9959;49.798;9.928;2023-08-30T04:52:29;98928.19;;;12.85;100.00
19624;BME280;9959;49.798;9.928;2023-08-30T04:54:55;98922.06;;;13.07;100.00
19624;BME280;9959;49.798;9.928;2023-08-30T04:57:22;98923.66;;;12.91;100.00
19624;BME280;9959;49.798;9.928;2023-08-30T04:59:49;98934.47;;;12.91;100.00
19624;BME280;9959;49.798;9.928;2023-08-30T05:02:16;98931.19;;;12.89;100.00
19624;BME280;9959;49.798;9.928;2023-08-30T05:04:43;98933.50;;;12.80;100.00
19624;BME280;9959;49.798;9.928;2023-08-30T05:07:10;98938.44;;;12.83;100.00
19624;BME280;9959;49.798;9.928;2023-08-30T05:09:37;98934.19;;;13.04;100.00
19624;BME280;9959;49.798;9.928;2023-08-30T05:12:07;98938.72;;;12.87;100.00
19624;BME280;9959;49.798;9.928;2023-08-30T05:14:34;98932.59;;;12.92;100.00
19624;BME280;9959;49.798;9.928;2023-08-30T05:17:01;98930.56;;;12.99;100.00
19624;BME280;9959;49.798;9.928;2023-08-30T05:19:28;98932.28;;;13.05;100.00
19624;BME280;9959;49.798;9.928;2023-08-30T05:21:55;98928.44;;;13.01;100.00
19624;BME280;9959;49.798;9.928;2023-08-30T05:24:22;98923.88;;;13.18;100.00
19624;BME280;9959;49.798;9.928;2023-08-30T05:26:49;98922.38;;;13.61;100.00
19624;BME280;9959;49.798;9.928;2023-08-30T05:29:16;98927.22;;;13.59;100.00
19624;BME280;9959;49.798;9.928;2023-08-30T05:31:43;98927.81;;;14.26;100.00
19624;BME280;9959;49.798;9.928;2023-08-30T05:34:11;98923.03;;;13.51;100.00
19624;BME280;9959;49.798;9.928;2023-08-30T05:36:38;98926.22;;;13.65;100.00
19624;BME280;9959;49.798;9.928;2023-08-30T05:39:05;98933.81;;;13.68;100.00
19624;BME280;9959;49.798;9.928;2023-08-30T05:41:33;98930.56;;;13.49;100.00
19624;BME280;9959;49.798;9.928;2023-08-30T05:44:00;98923.44;;;13.43;100.00
19624;BME280;9959;49.798;9.928;2023-08-30T05:46:26;98925.31;;;13.59;100.00
19624;BME280;9959;49.798;9.928;2023-08-30T05:48:54;98930.56;;;13.49;100.00
19624;BME280;9959;49.798;9.928;2023-08-30T05:51:21;98930.25;;;13.62;100.00
19624;BME280;9959;49.798;9.928;2023-08-30T05:53:48;98928.84;;;13.43;100.00
19624;BME280;9959;49.798;9.928;2023-08-30T05:56:15;98932.56;;;13.20;100.00
19624;BME280;9959;49.798;9.928;2023-08-30T05:58:42;98936.56;;;13.51;100.00
19624;BME280;9959;49.798;9.928;2023-08-30T06:01:09;98941.69;;;13.69;100.00
19624;BME280;9959;49.798;9.928;2023-08-30T06:03:36;98943.03;;;13.50;100.00
19624;BME280;9959;49.798;9.928;2023-08-30T06:06:04;98947.75;;;13.76;100.00
19624;BME280;9959;49.798;9.928;2023-08-30T06:08:31;98946.94;;;13.98;100.00
19624;BME280;9959;49.798;9.928;2023-08-30T06:10:58;98944.13;;;14.09;100.00
19624;BME280;9959;49.798;9.928;2023-08-30T06:13:26;98941.41;;;13.87;100.00
19624;BME280;9959;49.798;9.928;2023-08-30T06:15:53;98937.91;;;13.87;100.00
19624;BME280;9959;49.798;9.928;2023-08-30T06:18:20;98939.28;;;14.82;100.00
19624;BME280;9959;49.798;9.928;2023-08-30T06:20:47;98936.00;;;14.53;100.00
19624;BME280;9959;49.798;9.928;2023-08-30T06:23:18;98931.84;;;14.23;100.00
19624;BME280;9959;49.798;9.928;2023-08-30T06:25:53;98937.88;;;14.52;100.00
19624;BME280;9959;49.798;9.928;2023-08-30T06:28:20;98939.13;;;14.67;100.00
19624;BME280;9959;49.798;9.928;2023-08-30T06:30:48;98929.25;;;14.55;100.00
19624;BME280;9959;49.798;9.928;2023-08-30T06:33:15;98929.81;;;14.36;100.00
19624;BME280;9959;49.798;9.928;2023-08-30T06:35:43;98926.47;;;14.72;100.00
19624;BME280;9959;49.798;9.928;2023-08-30T06:38:10;98928.84;;;14.69;100.00
19624;BME280;9959;49.798;9.928;2023-08-30T06:40:43;98926.78;;;14.81;100.00
19624;BME280;9959;49.798;9.928;2023-08-30T06:43:13;98930.94;;;14.62;100.00
19624;BME280;9959;49.798;9.928;2023-08-30T06:45:41;98927.84;;;14.75;100.00
19624;BME280;9959;49.798;9.928;2023-08-30T06:48:08;98921.78;;;14.95;100.00
19624;BME280;9959;49.798;9.928;2023-08-30T06:50:36;98918.84;;;14.69;100.00
19624;BME280;9959;49.798;9.928;2023-08-30T06:53:03;98932.72;;;14.78;100.00
19624;BME280;9959;49.798;9.928;2023-08-30T06:55:30;98925.47;;;15.15;100.00
19624;BME280;9959;49.798;9.928;2023-08-30T06:57:58;98922.75;;;14.56;100.00
19624;BME280;9959;49.798;9.928;2023-08-30T07:00:26;98912.72;;;14.84;100.00
19624;BME280;9959;49.798;9.928;2023-08-30T07:02:53;98914.66;;;15.20;100.00
19624;BME280;9959;49.798;9.928;2023-08-30T07:05:21;98910.97;;;15.32;100.00
19624;BME280;9959;49.798;9.928;2023-08-30T07:07:49;98911.03;;;15.84;100.00
19624;BME280;9959;49.798;9.928;2023-08-30T07:10:16;98907.75;;;15.03;100.00
19624;BME280;9959;49.798;9.928;2023-08-30T07:12:43;98911.28;;;15.77;100.00
19624;BME280;9959;49.798;9.928;2023-08-30T07:15:12;98903.81;;;16.15;100.00
19624;BME280;9959;49.798;9.928;2023-08-30T07:17:39;98909.16;;;15.84;100.00
19624;BME280;9959;49.798;9.928;2023-08-30T07:20:12;98904.38;;;16.17;100.00
19624;BME280;9959;49.798;9.928;2023-08-30T07:22:39;98907.22;;;16.57;100.00
19624;BME280;9959;49.798;9.928;2023-08-30T07:25:06;98894.38;;;16.33;100.00
19624;BME280;9959;49.798;9.928;2023-08-30T07:27:34;98902.06;;;16.61;100.00
19624;BME280;9959;49.798;9.928;2023-08-30T07:30:02;98902.94;;;16.82;100.00
19624;BME280;9959;49.798;9.928;2023-08-30T07:32:31;98900.09;;;16.41;100.00
19624;BME280;9959;49.798;9.928;2023-08-30T07:34:58;98898.03;;;16.74;100.00
19624;BME280;9959;49.798;9.928;2023-08-30T07:37:25;98905.66;;;16.67;100.00
19624;BME280;9959;49.798;9.928;2023-08-30T07:39:52;98897.75;;;16.70;100.00
19624;BME280;9959;49.798;9.928;2023-08-30T07:42:19;98912.72;;;17.39;98.01
19624;BME280;9959;49.798;9.928;2023-08-30T07:44:47;98905.66;;;17.07;100.00
19624;BME280;9959;49.798;9.928;2023-08-30T07:47:14;98904.28;;;17.25;98.56
19624;BME280;9959;49.798;9.928;2023-08-30T07:49:41;98903.78;;;16.92;100.00
19624;BME280;9959;49.798;9.928;2023-08-30T07:52:10;98918.59;;;16.44;100.00
19624;BME280;9959;49.798;9.928;2023-08-30T07:54:38;98914.00;;;16.55;100.00
19624;BME280;9959;49.798;9.928;2023-08-30T07:57:09;98916.25;;;16.78;100.00
19624;BME280;9959;49.798;9.928;2023-08-30T07:59:36;98907.78;;;16.59;100.00
19624;BME280;9959;49.798;9.928;2023-08-30T08:02:04;98908.69;;;16.08;100.00
19624;BME280;9959;49.798;9.928;2023-08-30T08:04:36;98912.00;;;16.20;100.00
19624;BME280;9959;49.798;9.928;2023-08-30T08:07:04;98910.00;;;17.03;100.00
19624;BME280;9959;49.798;9.928;2023-08-30T08:09:32;98912.75;;;17.08;100.00
19624;BME280;9959;49.798;9.928;2023-08-30T08:11:59;98914.94;;;17.16;100.00
19624;BME280;9959;49.798;9.928;2023-08-30T08:14:26;98908.13;;;16.88;100.00
19624;BME280;9959;49.798;9.928;2023-08-30T08:16:54;98908.13;;;17.14;100.00
19624;BME280;9959;49.798;9.928;2023-08-30T08:19:21;98909.22;;;17.23;100.00
19624;BME280;9959;49.798;9.928;2023-08-30T08:21:51;98897.97;;;17.60;97.94
19624;BME280;9959;49.798;9.928;2023-08-30T08:24:20;98902.41;;;17.05;100.00
19624;BME280;9959;49.798;9.928;2023-08-30T08:26:47;98899.66;;;17.41;97.83
19624;BME280;9959;49.798;9.928;2023-08-30T08:29:15;98903.44;;;17.70;97.37
19624;BME280;9959;49.798;9.928;2023-08-30T08:31:42;98904.88;;;18.32;91.66
19624;BME280;9959;49.798;9.928;2023-08-30T08:34:11;98903.13;;;17.82;94.54
19624;BME280;9959;49.798;9.928;2023-08-30T08:36:40;98894.91;;;17.97;93.23
19624;BME280;9959;49.798;9.928;2023-08-30T08:39:08;98891.75;;;18.34;91.79
19624;BME280;9959;49.798;9.928;2023-08-30T08:41:42;98891.22;;;18.81;88.10
19624;BME280;9959;49.798;9.928;2023-08-30T08:44:11;98890.63;;;18.40;88.73
19624;BME280;9959;49.798;9.928;2023-08-30T08:46:40;98884.88;;;17.82;93.22
19624;BME280;9959;49.798;9.928;2023-08-30T08:49:15;98886.63;;;18.22;89.75
19624;BME280;9959;49.798;9.928;2023-08-30T08:51:44;98884.59;;;18.43;90.74
19624;BME280;9959;49.798;9.928;2023-08-30T08:54:11;98882.50;;;19.13;86.64
19624;BME280;9959;49.798;9.928;2023-08-30T08:56:39;98882.00;;;19.40;84.65
19624;BME280;9959;49.798;9.928;2023-08-30T08:59:06;98886.91;;;20.15;80.50
19624;BME280;9959;49.798;9.928;2023-08-30T09:01:35;98887.69;;;19.97;79.63
19624;BME280;9959;49.798;9.928;2023-08-30T09:04:04;98884.72;;;19.69;81.58
19624;BME280;9959;49.798;9.928;2023-08-30T09:06:33;98879.47;;;19.15;81.41
19624;BME280;9959;49.798;9.928;2023-08-30T09:09:02;98881.22;;;19.87;79.20
19624;BME280;9959;49.798;9.928;2023-08-30T09:11:31;98885.88;;;19.63;79.63
19624;BME280;9959;49.798;9.928;2023-08-30T09:14:16;98884.56;;;20.27;75.87
19624;BME280;9959;49.798;9.928;2023-08-30T09:16:54;98883.88;;;20.78;73.58
19624;BME280;9959;49.798;9.928;2023-08-30T09:19:21;98880.91;;;20.93;72.60
19624;BME280;9959;49.798;9.928;2023-08-30T09:21:59;98887.22;;;21.07;70.71
19624;BME280;9959;49.798;9.928;2023-08-30T09:24:37;98895.34;;;18.74;81.96
19624;BME280;9959;49.798;9.928;2023-08-30T09:27:04;98890.59;;;19.81;77.84
19624;BME280;9959;49.798;9.928;2023-08-30T09:29:31;98891.22;;;19.73;79.18
19624;BME280;9959;49.798;9.928;2023-08-30T09:31:58;98877.97;;;19.62;79.30
19624;BME280;9959;49.798;9.928;2023-08-30T09:34:27;98886.34;;;19.70;79.79
19624;BME280;9959;49.798;9.928;2023-08-30T09:36:54;98882.84;;;20.12;77.40
19624;BME280;9959;49.798;9.928;2023-08-30T09:39:22;98882.69;;;20.65;75.61
19624;BME280;9959;49.798;9.928;2023-08-30T09:41:50;98876.53;;;19.93;77.86
19624;BME280;9959;49.798;9.928;2023-08-30T09:44:19;98877.25;;;19.99;81.15
19624;BME280;9959;49.798;9.928;2023-08-30T09:46:49;98864.63;;;21.48;71.03
19624;BME280;9959;49.798;9.928;2023-08-30T09:49:20;98870.34;;;21.92;68.32
19624;BME280;9959;49.798;9.928;2023-08-30T09:51:49;98865.31;;;22.13;68.55
19624;BME280;9959;49.798;9.928;2023-08-30T09:54:21;98855.69;;;21.42;68.88
19624;BME280;9959;49.798;9.928;2023-08-30T09:57:06;98870.13;;;21.89;64.91
19624;BME280;9959;49.798;9.928;2023-08-30T09:59:33;98863.53;;;21.16;65.36
19624;BME280;9959;49.798;9.928;2023-08-30T10:02:01;98863.84;;;21.88;61.13
19624;BME280;9959;49.798;9.928;2023-08-30T10:04:28;98858.91;;;22.54;59.04
19624;BME280;9959;49.798;9.928;2023-08-30T10:06:56;98859.63;;;22.10;60.56
19624;BME280;9959;49.798;9.928;2023-08-30T10:09:28;98857.00;;;21.12;65.71
19624;BME280;9959;49.798;9.928;2023-08-30T10:11:57;98851.66;;;21.94;64.70
19624;BME280;9959;49.798;9.928;2023-08-30T10:14:24;98848.88;;;21.40;66.06
19624;BME280;9959;49.798;9.928;2023-08-30T10:17:01;98836.94;;;22.90;59.17
19624;BME280;9959;49.798;9.928;2023-08-30T10:19:29;98843.94;;;21.69;62.53
19624;BME280;9959;49.798;9.928;2023-08-30T10:22:06;98844.53;;;21.93;61.86
19624;BME280;9959;49.798;9.928;2023-08-30T10:24:45;98833.13;;;23.00;58.38
19624;BME280;9959;49.798;9.928;2023-08-30T10:27:34;98835.19;;;21.40;64.24
19624;BME280;9959;49.798;9.928;2023-08-30T10:30:02;98833.06;;;21.04;65.38
19624;BME280;9959;49.798;9.928;2023-08-30T10:32:31;98833.00;;;21.83;63.21
19624;BME280;9959;49.798;9.928;2023-08-30T10:35:01;98832.94;;;21.28;64.51
19624;BME280;9959;49.798;9.928;2023-08-30T10:37:31;98835.03;;;20.28;69.16
19624;BME280;9959;49.798;9.928;2023-08-30T10:40:03;98833.34;;;21.21;65.78
19624;BME280;9959;49.798;9.928;2023-08-30T10:42:30;98840.34;;;20.95;64.72
19624;BME280;9959;49.798;9.928;2023-08-30T10:45:00;98833.34;;;21.35;64.43
19624;BME280;9959;49.798;9.928;2023-08-30T10:47:33;98830.72;;;21.30;64.40
19624;BME280;9959;49.798;9.928;2023-08-30T10:50:07;98831.69;;;22.08;59.82
19624;BME280;9959;49.798;9.928;2023-08-30T10:52:34;98829.72;;;22.94;57.40
19624;BME280;9959;49.798;9.928;2023-08-30T10:55:05;98837.56;;;22.15;59.21
19624;BME280;9959;49.798;9.928;2023-08-30T10:57:33;98831.88;;;22.47;57.32
19624;BME280;9959;49.798;9.928;2023-08-30T11:00:08;98827.41;;;22.51;57.55
19624;BME280;9959;49.798;9.928;2023-08-30T11:02:37;98834.41;;;21.80;59.65
19624;BME280;9959;49.798;9.928;2023-08-30T11:05:08;98819.19;;;21.14;62.81
19624;BME280;9959;49.798;9.928;2023-08-30T11:07:36;98813.03;;;21.22;61.01
19624;BME280;9959;49.798;9.928;2023-08-30T11:10:06;98814.81;;;21.13;62.47
19624;BME280;9959;49.798;9.928;2023-08-30T11:12:33;98823.41;;;21.25;61.58
19624;BME280;9959;49.798;9.928;2023-08-30T11:15:01;98817.31;;;20.64;62.65
19624;BME280;9959;49.798;9.928;2023-08-30T11:17:28;98810.13;;;21.33;60.93
19624;BME280;9959;49.798;9.928;2023-08-30T11:20:06;98806.59;;;21.73;60.05
19624;BME280;9959;49.798;9.928;2023-08-30T11:22:43;98802.84;;;20.44;64.82
19624;BME280;9959;49.798;9.928;2023-08-30T11:25:14;98810.09;;;20.86;63.28
19624;BME280;9959;49.798;9.928;2023-08-30T11:27:42;98797.94;;;20.41;63.51
19624;BME280;9959;49.798;9.928;2023-08-30T11:30:10;98803.69;;;20.58;62.63
19624;BME280;9959;49.798;9.928;2023-08-30T11:32:42;98805.84;;;21.40;59.53
19624;BME280;9959;49.798;9.928;2023-08-30T11:35:12;98805.13;;;21.21;61.80
19624;BME280;9959;49.798;9.928;2023-08-30T11:37:40;98806.38;;;21.56;60.54
19624;BME280;9959;49.798;9.928;2023-08-30T11:40:08;98801.81;;;22.42;57.98
19624;BME280;9959;49.798;9.928;2023-08-30T11:42:38;98794.22;;;23.68;53.97
19624;BME280;9959;49.798;9.928;2023-08-30T11:45:05;98790.50;;;23.73;52.73
19624;BME280;9959;49.798;9.928;2023-08-30T11:47:33;98793.72;;;24.40;51.00
19624;BME280;9959;49.798;9.928;2023-08-30T11:50:01;98793.34;;;22.16;57.82
19624;BME280;9959;49.798;9.928;2023-08-30T11:52:28;98788.72;;;22.03;60.56
19624;BME280;9959;49.798;9.928;2023-08-30T11:54:56;98786.72;;;22.31;58.11
19624;BME280;9959;49.798;9.928;2023-08-30T11:57:23;98777.34;;;22.77;57.30
19624;BME280;9959;49.798;9.928;2023-08-30T11:59:50;98776.03;;;22.88;56.79
19624;BME280;9959;49.798;9.928;2023-08-30T12:02:18;98773.91;;;24.21;51.57
19624;BME280;9959;49.798;9.928;2023-08-30T12:04:46;98766.81;;;24.80;49.41
19624;BME280;9959;49.798;9.928;2023-08-30T12:07:24;98756.75;;;24.76;50.11
19624;BME280;9959;49.798;9.928;2023-08-30T12:09:52;98748.81;;;24.66;50.94
19624;BME280;9959;49.798;9.928;2023-08-30T12:12:23;98769.34;;;23.42;52.33
19624;BME280;9959;49.798;9.928;2023-08-30T12:14:55;98763.47;;;23.66;51.39
19624;BME280;9959;49.798;9.928;2023-08-30T12:17:25;98767.91;;;22.83;54.16
19624;BME280;9959;49.798;9.928;2023-08-30T12:19:58;98760.03;;;21.95;56.04
19624;BME280;9959;49.798;9.928;2023-08-30T12:22:41;98765.78;;;21.44;59.08
19624;BME280;9959;49.798;9.928;2023-08-30T12:25:22;98757.44;;;21.36;56.66
19624;BME280;9959;49.798;9.928;2023-08-30T12:27:53;98765.03;;;21.66;54.78
19624;BME280;9959;49.798;9.928;2023-08-30T12:30:20;98754.53;;;21.59;55.13
19624;BME280;9959;49.798;9.928;2023-08-30T12:32:48;98756.75;;;21.44;55.61
19624;BME280;9959;49.798;9.928;2023-08-30T12:35:15;98764.16;;;21.30;55.71
19624;BME280;9959;49.798;9.928;2023-08-30T12:37:42;98757.00;;;21.01;57.15
19624;BME280;9959;49.798;9.928;2023-08-30T12:40:11;98754.94;;;20.93;55.91
19624;BME280;9959;49.798;9.928;2023-08-30T12:42:38;98758.19;;;20.95;57.73
19624;BME280;9959;49.798;9.928;2023-08-30T12:45:05;98768.81;;;20.13;64.33
19624;BME280;9959;49.798;9.928;2023-08-30T12:47:34;98768.41;;;19.82;72.80
19624;BME280;9959;49.798;9.928;2023-08-30T12:50:02;98749.84;;;19.60;76.95
19624;BME280;9959;49.798;9.928;2023-08-30T12:52:29;98758.31;;;19.35;76.72
19624;BME280;9959;49.798;9.928;2023-08-30T12:54:56;98751.25;;;19.76;74.14
19624;BME280;9959;49.798;9.928;2023-08-30T12:57:23;98755.78;;;20.05;73.89
19624;BME280;9959;49.798;9.928;2023-08-30T12:59:51;98758.84;;;20.41;72.28
19624;BME280;9959;49.798;9.928;2023-08-30T13:02:19;98753.16;;;20.37;71.15
19624;BME280;9959;49.798;9.928;2023-08-30T13:04:46;98748.72;;;20.74;68.80
19624;BME280;9959;49.798;9.928;2023-08-30T13:07:13;98755.44;;;21.27;65.25
19624;BME280;9959;49.798;9.928;2023-08-30T13:09:40;98748.94;;;21.51;64.92
19624;BME280;9959;49.798;9.928;2023-08-30T13:12:08;98744.34;;;20.73;63.88
19624;BME280;9959;49.798;9.928;2023-08-30T13:14:35;98747.69;;;20.70;63.02
19624;BME280;9959;49.798;9.928;2023-08-30T13:17:02;98745.88;;;21.39;62.02
19624;BME280;9959;49.798;9.928;2023-08-30T13:19:29;98744.22;;;21.79;58.10